createdAt,value
2022-07-30T00:00:36.796Z,24.00
2022-07-30T00:03:05.035Z,24.03
2022-07-30T00:05:34.624Z,23.89
2022-07-30T00:08:02.787Z,23.90
2022-07-30T00:10:30.969Z,23.83
2022-07-30T00:12:59.134Z,23.64
2022-07-30T00:15:28.685Z,23.58
2022-07-30T00:17:56.861Z,23.52
2022-07-30T00:20:27.953Z,23.49
2022-07-30T00:22:57.849Z,23.36
2022-07-30T00:25:25.993Z,23.31
2022-07-30T00:27:56.788Z,23.32
2022-07-30T00:30:25.128Z,23.30
2022-07-30T00:32:53.407Z,23.39
2022-07-30T00:35:21.535Z,23.38
2022-07-30T00:37:49.689Z,23.37
2022-07-30T00:40:19.614Z,23.48
2022-07-30T00:42:49.457Z,23.42
2022-07-30T00:45:18.658Z,23.35
2022-07-30T00:47:47.068Z,23.30
2022-07-30T00:50:16.562Z,23.33
2022-07-30T00:52:44.907Z,23.33
2022-07-30T00:55:15.043Z,23.39
2022-07-30T00:57:45.011Z,23.33
2022-07-30T01:00:16.639Z,23.28
2022-07-30T01:02:45.017Z,23.28
2022-07-30T01:05:14.364Z,23.30
2022-07-30T01:07:42.881Z,23.39
2022-07-30T01:10:12.953Z,23.50
2022-07-30T01:12:42.041Z,23.61
2022-07-30T01:15:12.845Z,23.69
2022-07-30T01:17:41.065Z,23.76
2022-07-30T01:20:13.437Z,23.77
2022-07-30T01:22:49.000Z,23.70
2022-07-30T01:25:27.059Z,23.74
2022-07-30T01:28:00.778Z,23.75
2022-07-30T01:30:30.040Z,23.77
2022-07-30T01:33:01.147Z,23.76
2022-07-30T01:35:31.912Z,23.71
2022-07-30T01:38:01.778Z,23.70
2022-07-30T01:40:30.656Z,23.61
2022-07-30T01:43:03.484Z,23.48
2022-07-30T01:45:41.471Z,23.41
2022-07-30T01:48:14.676Z,23.40
2022-07-30T01:50:48.287Z,23.27
2022-07-30T01:53:17.944Z,23.17
2022-07-30T01:55:47.776Z,23.06
2022-07-30T01:58:21.582Z,23.08
2022-07-30T02:00:58.329Z,23.08
2022-07-30T02:03:28.137Z,23.04
2022-07-30T02:06:02.005Z,23.04
2022-07-30T02:08:37.882Z,23.01
2022-07-30T02:11:10.353Z,22.98
2022-07-30T02:13:45.355Z,22.89
2022-07-30T02:16:18.647Z,22.90
2022-07-30T02:18:56.983Z,22.93
2022-07-30T02:21:36.349Z,22.85
2022-07-30T02:24:09.454Z,22.78
2022-07-30T02:26:39.455Z,22.75
2022-07-30T02:29:11.665Z,22.72
2022-07-30T02:31:42.936Z,22.66
2022-07-30T02:34:14.401Z,22.64
2022-07-30T02:36:44.350Z,22.60
2022-07-30T02:39:15.467Z,22.49
2022-07-30T02:41:49.686Z,22.50
2022-07-30T02:44:21.822Z,22.46
2022-07-30T02:46:52.535Z,22.46
2022-07-30T02:49:41.283Z,22.45
2022-07-30T02:52:13.661Z,22.48
2022-07-30T02:54:43.462Z,22.56
2022-07-30T02:57:12.730Z,22.63
2022-07-30T02:59:44.862Z,22.68
2022-07-30T03:02:15.186Z,22.57
2022-07-30T03:04:44.511Z,22.54
2022-07-30T03:07:18.015Z,22.54
2022-07-30T03:09:51.500Z,22.54
2022-07-30T03:12:23.019Z,22.50
2022-07-30T03:14:54.624Z,22.59
2022-07-30T03:17:25.083Z,22.69
2022-07-30T03:19:56.098Z,22.77
2022-07-30T03:22:31.310Z,22.76
2022-07-30T03:25:03.448Z,22.76
2022-07-30T03:27:33.207Z,22.71
2022-07-30T03:30:03.913Z,22.74
2022-07-30T03:32:32.759Z,22.72
2022-07-30T03:35:06.137Z,22.75
2022-07-30T03:37:36.943Z,22.82
2022-07-30T03:40:08.194Z,22.94
2022-07-30T03:42:37.244Z,23.03
2022-07-30T03:45:10.057Z,23.04
2022-07-30T03:47:42.106Z,23.06
2022-07-30T03:50:13.794Z,23.09
2022-07-30T03:52:42.963Z,23.02
2022-07-30T03:55:16.775Z,22.97
2022-07-30T03:57:51.295Z,23.03
2022-07-30T04:00:27.225Z,23.00
2022-07-30T04:02:55.504Z,22.98
2022-07-30T04:05:40.999Z,23.02
2022-07-30T04:08:12.854Z,23.06
2022-07-30T04:10:42.632Z,23.03
2022-07-30T04:13:49.535Z,23.07
2022-07-30T04:16:39.018Z,23.03
2022-07-30T04:19:17.757Z,23.05
2022-07-30T04:21:47.907Z,23.09
2022-07-30T04:24:18.865Z,23.13
2022-07-30T04:26:48.787Z,23.19
2022-07-30T04:29:22.671Z,23.13
2022-07-30T04:31:56.151Z,23.09
2022-07-30T04:34:32.998Z,23.20
2022-07-30T04:37:01.845Z,23.20
2022-07-30T04:39:30.786Z,23.20
2022-07-30T04:41:58.986Z,23.18
2022-07-30T04:44:38.026Z,23.26
2022-07-30T04:47:27.588Z,23.16
2022-07-30T04:50:17.532Z,23.15
2022-07-30T04:52:49.092Z,23.28
2022-07-30T04:55:24.611Z,23.16
2022-07-30T04:57:54.589Z,22.98
2022-07-30T05:00:25.935Z,22.76
2022-07-30T05:02:59.094Z,22.83
2022-07-30T05:05:28.132Z,22.89
2022-07-30T05:07:58.441Z,22.82
2022-07-30T05:10:28.539Z,22.88
2022-07-30T05:12:56.843Z,22.90
2022-07-30T05:15:37.399Z,22.96
2022-07-30T05:18:09.747Z,23.02
2022-07-30T05:20:41.605Z,23.11
2022-07-30T05:23:20.059Z,23.24
2022-07-30T05:25:59.552Z,23.14
2022-07-30T05:28:36.108Z,23.26
2022-07-30T05:31:09.102Z,23.32
2022-07-30T05:33:42.656Z,23.52
2022-07-30T05:36:16.671Z,23.66
2022-07-30T05:38:44.849Z,23.73
2022-07-30T05:41:36.003Z,23.70
2022-07-30T05:44:14.091Z,23.36
2022-07-30T05:46:42.692Z,23.48
2022-07-30T05:49:12.472Z,23.42
2022-07-30T05:51:41.252Z,23.46
2022-07-30T05:54:10.591Z,23.46
2022-07-30T05:57:02.293Z,23.57
2022-07-30T05:59:33.393Z,23.61
2022-07-30T06:02:10.111Z,23.71
2022-07-30T06:04:57.988Z,23.72
2022-07-30T06:07:26.358Z,23.82
2022-07-30T06:10:00.125Z,23.89
2022-07-30T06:12:29.320Z,23.95
2022-07-30T06:14:58.787Z,23.88
2022-07-30T06:17:31.281Z,23.93
2022-07-30T06:20:29.677Z,24.01
2022-07-30T06:23:24.510Z,24.08
2022-07-30T06:26:07.833Z,24.11
2022-07-30T06:28:38.727Z,24.19
2022-07-30T06:31:16.078Z,24.24
2022-07-30T06:33:44.839Z,24.26
2022-07-30T06:36:14.726Z,24.33
2022-07-30T06:38:59.878Z,24.35
2022-07-30T06:41:45.583Z,24.44
2022-07-30T06:44:15.656Z,24.43
2022-07-30T06:47:07.441Z,24.42
2022-07-30T06:49:37.447Z,24.62
2022-07-30T06:52:08.705Z,24.78
2022-07-30T06:54:37.401Z,24.90
2022-07-30T06:57:20.590Z,25.02
2022-07-30T06:59:56.287Z,24.83
2022-07-30T07:02:45.114Z,25.03
2022-07-30T07:05:15.371Z,25.13
2022-07-30T07:07:58.255Z,25.07
2022-07-30T07:10:31.545Z,25.14
2022-07-30T07:13:32.063Z,25.07
2022-07-30T07:16:03.189Z,25.10
2022-07-30T07:18:32.545Z,25.09
2022-07-30T07:21:06.337Z,24.92
2022-07-30T07:23:41.802Z,24.95
2022-07-30T07:26:24.758Z,25.04
2022-07-30T07:28:53.602Z,25.20
2022-07-30T07:32:06.430Z,25.33
2022-07-30T07:34:14.253Z,25.58
2022-07-30T07:36:45.218Z,25.76
2022-07-30T07:39:15.023Z,25.85
2022-07-30T07:41:48.959Z,25.96
2022-07-30T07:44:21.850Z,26.15
2022-07-30T07:46:50.026Z,26.32
2022-07-30T07:49:18.381Z,26.43
2022-07-30T07:51:52.497Z,26.53
2022-07-30T07:54:23.550Z,26.36
2022-07-30T07:56:56.623Z,26.03
2022-07-30T07:59:41.214Z,25.97
2022-07-30T08:02:21.487Z,25.84
2022-07-30T08:05:01.024Z,25.58
2022-07-30T08:07:49.653Z,25.46
2022-07-30T08:10:19.388Z,25.33
2022-07-30T08:12:47.503Z,25.24
2022-07-30T08:15:22.233Z,25.34
2022-07-30T08:18:10.645Z,25.43
2022-07-30T08:21:17.056Z,25.43
2022-07-30T08:23:46.223Z,25.64
2022-07-30T08:26:15.994Z,25.69
2022-07-30T08:28:45.810Z,25.72
2022-07-30T08:31:14.726Z,25.70
2022-07-30T08:33:42.933Z,25.77
2022-07-30T08:36:12.497Z,25.94
2022-07-30T08:38:40.708Z,25.97
2022-07-30T08:41:10.441Z,25.89
2022-07-30T08:43:41.530Z,25.80
2022-07-30T08:46:11.343Z,25.81
2022-07-30T08:48:57.317Z,25.91
2022-07-30T08:51:26.149Z,25.90
2022-07-30T08:54:13.019Z,25.93
2022-07-30T08:56:42.868Z,26.00
2022-07-30T08:59:12.593Z,26.21
2022-07-30T09:01:40.740Z,26.19
2022-07-30T09:04:08.924Z,26.06
2022-07-30T09:06:38.236Z,26.03
2022-07-30T09:09:07.364Z,25.96
2022-07-30T09:11:36.465Z,25.90
2022-07-30T09:14:13.650Z,25.74
2022-07-30T09:16:43.215Z,25.59
2022-07-30T09:19:17.916Z,25.51
2022-07-30T09:21:57.423Z,25.43
2022-07-30T09:24:43.974Z,25.42
2022-07-30T09:27:45.312Z,25.36
2022-07-30T09:30:47.363Z,25.07
2022-07-30T09:33:36.753Z,24.48
2022-07-30T09:36:32.983Z,24.25
2022-07-30T09:39:34.916Z,24.03
2022-07-30T09:42:23.535Z,23.99
2022-07-30T09:44:53.688Z,23.94
2022-07-30T09:47:33.841Z,23.78
2022-07-30T09:50:07.972Z,23.66
2022-07-30T09:52:36.981Z,23.43
2022-07-30T09:55:14.361Z,22.82
2022-07-30T09:57:58.877Z,21.74
2022-07-30T10:00:29.100Z,20.98
2022-07-30T10:03:21.956Z,20.37
2022-07-30T10:06:33.964Z,19.93
2022-07-30T10:09:13.691Z,19.84
2022-07-30T10:11:48.602Z,19.75
2022-07-30T10:14:18.278Z,19.71
2022-07-30T10:17:00.207Z,19.75
2022-07-30T10:19:40.228Z,19.79
2022-07-30T10:22:29.424Z,19.89
2022-07-30T10:25:36.392Z,20.05
2022-07-30T10:28:24.167Z,20.18
2022-07-30T10:30:53.115Z,20.28
2022-07-30T10:33:36.418Z,20.41
2022-07-30T10:36:12.142Z,20.51
2022-07-30T10:38:46.013Z,20.56
2022-07-30T10:41:44.363Z,20.68
2022-07-30T10:44:46.814Z,20.59
2022-07-30T10:47:18.654Z,20.59
2022-07-30T10:50:11.652Z,20.67
2022-07-30T10:52:52.765Z,20.67
2022-07-30T10:55:37.003Z,20.84
2022-07-30T10:58:08.711Z,20.92
2022-07-30T11:00:58.550Z,20.90
2022-07-30T11:03:41.568Z,20.89
2022-07-30T11:06:26.950Z,20.79
2022-07-30T11:08:57.121Z,20.63
2022-07-30T11:12:01.401Z,20.77
2022-07-30T11:14:58.450Z,20.97
2022-07-30T11:18:00.221Z,21.12
2022-07-30T11:20:30.344Z,21.17
2022-07-30T11:23:14.245Z,21.16
2022-07-30T11:25:51.084Z,21.16
2022-07-30T11:28:45.986Z,21.39
2022-07-30T11:31:55.609Z,21.48
2022-07-30T11:34:30.763Z,21.40
2022-07-30T11:37:21.963Z,21.35
2022-07-30T11:40:12.221Z,21.37
2022-07-30T11:42:43.690Z,21.54
2022-07-30T11:45:29.657Z,21.61
2022-07-30T11:48:01.456Z,21.85
2022-07-30T11:50:32.488Z,22.46
2022-07-30T11:53:04.124Z,22.54
2022-07-30T11:55:34.089Z,22.89
2022-07-30T11:58:04.279Z,23.18
2022-07-30T12:00:38.490Z,23.43
2022-07-30T12:03:14.691Z,23.69
2022-07-30T12:05:44.034Z,23.89
2022-07-30T12:08:35.246Z,23.84
2022-07-30T12:11:03.208Z,23.57
2022-07-30T12:13:45.346Z,23.35
2022-07-30T12:16:17.645Z,23.18
2022-07-30T12:18:46.643Z,23.05
2022-07-30T12:21:16.871Z,23.35
2022-07-30T12:23:55.281Z,23.57
2022-07-30T12:26:26.766Z,23.68
2022-07-30T12:28:56.527Z,23.87
2022-07-30T12:31:24.953Z,23.95
2022-07-30T12:33:53.307Z,24.01
2022-07-30T12:36:32.618Z,23.96
2022-07-30T12:39:03.937Z,24.01
2022-07-30T12:41:45.822Z,24.27
2022-07-30T12:44:35.860Z,24.05
2022-07-30T12:47:05.446Z,24.02
2022-07-30T12:49:37.624Z,23.95
2022-07-30T12:52:28.829Z,24.09
2022-07-30T12:55:10.367Z,24.34
2022-07-30T12:57:57.438Z,24.57
2022-07-30T13:00:27.104Z,24.58
2022-07-30T13:02:55.862Z,25.19
2022-07-30T13:05:45.355Z,25.28
2022-07-30T13:08:13.543Z,25.04
2022-07-30T13:10:58.263Z,25.40
2022-07-30T13:13:28.058Z,25.18
2022-07-30T13:16:01.329Z,24.86
2022-07-30T13:18:30.293Z,24.94
2022-07-30T13:20:58.576Z,24.84
2022-07-30T13:23:27.595Z,24.57
2022-07-30T13:25:57.855Z,24.56
2022-07-30T13:28:26.118Z,24.54
2022-07-30T13:30:54.323Z,24.27
2022-07-30T13:33:22.461Z,24.11
2022-07-30T13:35:50.643Z,23.83
2022-07-30T13:38:18.757Z,23.78
2022-07-30T13:40:47.104Z,23.53
2022-07-30T13:43:16.766Z,23.38
2022-07-30T13:45:44.903Z,23.49
2022-07-30T13:48:13.086Z,23.69
2022-07-30T13:50:41.425Z,23.81
2022-07-30T13:53:10.200Z,23.81
2022-07-30T13:55:38.796Z,24.12
2022-07-30T13:58:08.578Z,24.56
2022-07-30T14:00:38.905Z,24.75
2022-07-30T14:03:09.004Z,24.43
2022-07-30T14:05:42.042Z,24.55
2022-07-30T14:08:11.976Z,24.18
2022-07-30T14:10:41.011Z,23.86
2022-07-30T14:13:10.402Z,23.88
2022-07-30T14:15:45.455Z,23.94
2022-07-30T14:18:13.596Z,23.83
2022-07-30T14:20:45.546Z,23.39
2022-07-30T14:23:16.454Z,23.45
2022-07-30T14:25:44.749Z,23.45
2022-07-30T14:28:14.002Z,23.44
2022-07-30T14:30:42.209Z,23.54
2022-07-30T14:33:12.140Z,23.71
2022-07-30T14:35:40.374Z,23.81
2022-07-30T14:38:08.610Z,24.06
2022-07-30T14:40:36.762Z,24.13
2022-07-30T14:43:06.545Z,23.82
2022-07-30T14:45:36.525Z,23.72
2022-07-30T14:48:05.054Z,23.40
2022-07-30T14:50:46.594Z,23.35
2022-07-30T14:53:22.750Z,23.25
2022-07-30T14:55:50.930Z,23.19
2022-07-30T14:58:19.172Z,23.28
2022-07-30T15:00:48.394Z,23.24
2022-07-30T15:03:17.169Z,23.39
2022-07-30T15:05:50.300Z,23.50
2022-07-30T15:08:20.689Z,23.80
2022-07-30T15:10:49.253Z,24.17
2022-07-30T15:13:18.115Z,24.75
2022-07-30T15:15:47.781Z,24.76
2022-07-30T15:18:16.044Z,25.71
2022-07-30T15:20:44.196Z,26.15
2022-07-30T15:23:14.402Z,25.04
2022-07-30T15:25:43.081Z,25.07
2022-07-30T15:28:11.197Z,24.65
2022-07-30T15:30:39.356Z,24.57
2022-07-30T15:33:07.612Z,23.77
2022-07-30T15:35:36.780Z,24.00
2022-07-30T15:38:05.348Z,24.87
2022-07-30T15:40:34.956Z,24.75
2022-07-30T15:43:06.815Z,24.31
2022-07-30T15:45:52.317Z,25.15
2022-07-30T15:48:27.408Z,24.76
2022-07-30T15:51:02.732Z,25.13
2022-07-30T15:53:31.355Z,24.83
2022-07-30T15:56:01.623Z,24.44
2022-07-30T15:58:29.758Z,24.12
2022-07-30T16:00:58.051Z,24.03
2022-07-30T16:03:26.192Z,24.01
2022-07-30T16:05:54.431Z,23.87
2022-07-30T16:08:22.638Z,23.72
2022-07-30T16:10:51.994Z,23.72
2022-07-30T16:13:21.612Z,23.90
2022-07-30T16:15:49.893Z,23.88
2022-07-30T16:18:18.102Z,24.11
2022-07-30T16:20:46.311Z,24.26
2022-07-30T16:23:19.444Z,24.30
2022-07-30T16:25:49.385Z,24.26
2022-07-30T16:28:17.857Z,24.19
2022-07-30T16:30:50.740Z,24.18
2022-07-30T16:33:20.848Z,24.18
2022-07-30T16:35:50.955Z,24.21
2022-07-30T16:38:19.477Z,24.26
2022-07-30T16:40:47.856Z,24.29
2022-07-30T16:43:20.198Z,24.45
2022-07-30T16:45:49.982Z,24.35
2022-07-30T16:48:18.332Z,24.22
2022-07-30T16:50:46.841Z,24.18
2022-07-30T16:53:15.039Z,24.15
2022-07-30T16:55:45.981Z,24.07
2022-07-30T16:58:14.139Z,24.08
2022-07-30T17:00:42.545Z,24.16
2022-07-30T17:03:20.210Z,24.24
2022-07-30T17:05:48.868Z,24.40
2022-07-30T17:08:17.735Z,24.43
2022-07-30T17:10:46.495Z,24.54
2022-07-30T17:13:16.247Z,24.54
2022-07-30T17:15:45.592Z,24.51
2022-07-30T17:18:17.163Z,24.28
2022-07-30T17:20:45.358Z,24.27
2022-07-30T17:23:13.655Z,24.15
2022-07-30T17:25:41.807Z,24.12
2022-07-30T17:28:09.915Z,24.11
2022-07-30T17:30:38.139Z,24.07
2022-07-30T17:33:06.465Z,24.03
2022-07-30T17:35:36.004Z,23.97
2022-07-30T17:38:04.326Z,24.00
2022-07-30T17:40:34.569Z,23.89
2022-07-30T17:43:04.900Z,23.75
2022-07-30T17:45:34.445Z,23.78
2022-07-30T17:48:02.745Z,23.74
2022-07-30T17:50:32.268Z,23.81
2022-07-30T17:53:03.657Z,23.58
2022-07-30T17:55:32.108Z,23.47
2022-07-30T17:58:00.198Z,23.47
2022-07-30T18:00:28.412Z,23.38
2022-07-30T18:02:56.604Z,23.40
2022-07-30T18:05:24.742Z,23.41
2022-07-30T18:07:53.112Z,23.44
2022-07-30T18:10:22.780Z,23.44
2022-07-30T18:12:50.878Z,23.46
2022-07-30T18:15:20.319Z,23.43
2022-07-30T18:17:48.574Z,23.35
2022-07-30T18:20:17.132Z,23.39
2022-07-30T18:22:45.464Z,23.29
2022-07-30T18:25:19.094Z,23.32
2022-07-30T18:27:49.038Z,23.20
2022-07-30T18:30:17.354Z,23.11
2022-07-30T18:32:45.955Z,23.10
2022-07-30T18:35:15.389Z,23.11
2022-07-30T18:37:44.717Z,22.99
2022-07-30T18:40:14.531Z,22.97
2022-07-30T18:42:43.159Z,22.91
2022-07-30T18:45:14.123Z,22.84
2022-07-30T18:47:42.600Z,22.90
2022-07-30T18:50:11.670Z,22.88
2022-07-30T18:52:40.044Z,22.94
2022-07-30T18:55:11.324Z,22.89
2022-07-30T18:57:39.632Z,22.87
2022-07-30T19:00:35.666Z,22.93
2022-07-30T19:03:01.206Z,22.93
2022-07-30T19:05:29.720Z,22.87
2022-07-30T19:07:58.793Z,22.89
2022-07-30T19:10:28.077Z,22.86
2022-07-30T19:12:57.094Z,22.84
2022-07-30T19:15:25.689Z,22.87
2022-07-30T19:17:54.120Z,22.86
2022-07-30T19:20:24.501Z,22.82
2022-07-30T19:22:53.337Z,22.80
2022-07-30T19:25:21.631Z,22.80
2022-07-30T19:27:49.804Z,22.84
2022-07-30T19:30:18.050Z,22.82
2022-07-30T19:32:46.150Z,22.73
2022-07-30T19:35:14.565Z,22.69
2022-07-30T19:37:44.281Z,22.67
2022-07-30T19:40:13.801Z,22.68
2022-07-30T19:42:42.544Z,22.60
2022-07-30T19:45:13.055Z,22.55
2022-07-30T19:50:29.765Z,22.53
2022-07-30T19:52:59.483Z,22.46
2022-07-30T19:55:35.019Z,22.39
2022-07-30T19:58:16.060Z,22.35
2022-07-30T20:00:49.576Z,22.40
2022-07-30T20:03:25.477Z,22.40
2022-07-30T20:05:58.622Z,22.39
2022-07-30T20:08:29.596Z,22.40
2022-07-30T20:10:59.304Z,22.35
2022-07-30T20:13:44.040Z,22.37
2022-07-30T20:16:15.667Z,22.32
2022-07-30T20:18:46.029Z,22.39
2022-07-30T20:21:15.827Z,22.36
2022-07-30T20:23:46.526Z,22.37
2022-07-30T20:26:16.048Z,22.35
2022-07-30T20:28:52.559Z,22.19
2022-07-30T20:31:21.334Z,22.16
2022-07-30T20:33:50.787Z,22.15
2022-07-30T20:36:19.704Z,22.03
2022-07-30T20:38:49.457Z,22.02
2022-07-30T20:41:17.858Z,21.98
2022-07-30T20:43:52.409Z,22.01
2022-07-30T20:46:23.802Z,21.91
2022-07-30T20:48:52.797Z,21.82
2022-07-30T20:51:21.627Z,21.76
2022-07-30T20:54:03.244Z,21.65
2022-07-30T20:56:31.510Z,21.65
2022-07-30T20:58:59.661Z,21.67
2022-07-30T21:01:30.768Z,21.65
2022-07-30T21:03:59.138Z,21.61
2022-07-30T21:06:27.401Z,21.61
2022-07-30T21:08:56.799Z,21.58
2022-07-30T21:11:26.940Z,21.57
2022-07-30T21:13:55.147Z,21.50
2022-07-30T21:16:23.752Z,21.39
2022-07-30T21:18:51.884Z,21.36
2022-07-30T21:21:30.461Z,21.33
2022-07-30T21:24:12.225Z,21.29
2022-07-30T21:26:42.866Z,21.28
2022-07-30T21:29:11.733Z,21.30
2022-07-30T21:32:01.374Z,21.31
2022-07-30T21:34:30.842Z,21.25
2022-07-30T21:37:03.541Z,21.26
2022-07-30T21:39:31.741Z,21.28
2022-07-30T21:42:10.266Z,21.29
2022-07-30T21:44:38.823Z,21.27
2022-07-30T21:47:10.122Z,21.21
2022-07-30T21:49:39.273Z,21.15
2022-07-30T21:52:08.512Z,21.12
2022-07-30T21:54:48.043Z,21.10
2022-07-30T21:57:26.142Z,21.07
2022-07-30T21:59:55.487Z,21.07
2022-07-30T22:02:23.984Z,20.92
2022-07-30T22:04:52.375Z,20.89
2022-07-30T22:07:21.899Z,20.90
2022-07-30T22:09:50.425Z,20.87
2022-07-30T22:12:20.171Z,20.81
2022-07-30T22:14:49.520Z,20.74
2022-07-30T22:17:23.483Z,20.80
2022-07-30T22:20:08.729Z,20.70
2022-07-30T22:22:39.927Z,20.67
2022-07-30T22:25:09.772Z,20.67
2022-07-30T22:27:56.012Z,20.67
2022-07-30T22:30:26.792Z,20.60
2022-07-30T22:32:55.669Z,20.60
2022-07-30T22:35:32.403Z,20.62
2022-07-30T22:38:02.983Z,20.53
2022-07-30T22:40:31.468Z,20.55
2022-07-30T22:43:04.211Z,20.45
2022-07-30T22:45:48.573Z,20.44
2022-07-30T22:48:17.350Z,20.44
2022-07-30T22:50:48.516Z,20.38
2022-07-30T22:54:10.639Z,20.40
2022-07-30T22:56:14.171Z,20.29
2022-07-30T22:58:45.394Z,20.19
2022-07-30T23:01:16.950Z,20.14
2022-07-30T23:03:45.148Z,20.13
2022-07-30T23:06:16.536Z,20.11
2022-07-30T23:08:44.658Z,20.01
2022-07-30T23:11:12.779Z,19.99
2022-07-30T23:12:15.038Z,22.56
2022-07-30T23:13:40.896Z,19.99
2022-07-30T23:16:10.623Z,20.03
2022-07-30T23:18:38.790Z,20.05
2022-07-30T23:21:06.878Z,20.03
2022-07-30T23:23:35.865Z,20.01
2022-07-30T23:26:04.955Z,20.03
2022-07-30T23:28:33.198Z,20.01
2022-07-30T23:31:01.473Z,20.04
2022-07-30T23:33:31.768Z,20.04
2022-07-30T23:36:00.403Z,20.04
2022-07-30T23:38:28.881Z,20.04
2022-07-30T23:41:01.219Z,20.03
2022-07-30T23:43:29.426Z,19.95
2022-07-30T23:45:57.512Z,19.95
2022-07-30T23:48:25.664Z,19.91
2022-07-30T23:50:55.256Z,19.90
2022-07-30T23:53:23.360Z,19.76
2022-07-30T23:55:52.120Z,19.69
2022-07-30T23:58:20.452Z,19.71
